sensor_id;sensor_type;location;lat;lon;timestamp;pressure;altitude;pressure_sealevel;temperature;humidity
69318;BME280;56457;52.190;4.440;2022-10-30T00:00:20;101700.56;;;15.57;100.00
69318;BME280;56457;52.190;4.440;2022-10-30T00:01:20;101702.31;;;15.58;100.00
69318;BME280;56457;52.190;4.440;2022-10-30T00:02:20;101702.25;;;15.66;100.00
69318;BME280;56457;52.190;4.440;2022-10-30T00:03:21;101709.19;;;15.73;100.00
69318;BME280;56457;52.190;4.440;2022-10-30T00:04:21;101703.78;;;15.81;100.00
69318;BME280;56457;52.190;4.440;2022-10-30T00:05:21;101709.91;;;15.84;100.00
69318;BME280;56457;52.190;4.440;2022-10-30T00:06:22;101710.78;;;15.83;100.00
69318;BME280;56457;52.190;4.440;2022-10-30T00:07:22;101710.00;;;15.78;100.00
69318;BME280;56457;52.190;4.440;2022-10-30T00:08:22;101712.66;;;15.77;100.00
69318;BME280;56457;52.190;4.440;2022-10-30T00:09:24;101714.47;;;15.75;100.00
69318;BME280;56457;52.190;4.440;2022-10-30T00:10:25;101718.91;;;15.71;100.00
69318;BME280;56457;52.190;4.440;2022-10-30T00:11:25;101720.75;;;15.68;100.00
69318;BME280;56457;52.190;4.440;2022-10-30T00:12:25;101713.75;;;15.60;100.00
69318;BME280;56457;52.190;4.440;2022-10-30T00:13:25;101712.03;;;15.59;100.00
69318;BME280;56457;52.190;4.440;2022-10-30T00:14:26;101720.03;;;15.53;100.00
69318;BME280;56457;52.190;4.440;2022-10-30T00:15:26;101707.69;;;15.52;100.00
69318;BME280;56457;52.190;4.440;2022-10-30T00:16:26;101713.88;;;15.51;100.00
69318;BME280;56457;52.190;4.440;2022-10-30T00:17:26;101716.59;;;15.48;100.00
69318;BME280;56457;52.190;4.440;2022-10-30T00:18:27;101713.13;;;15.43;100.00
69318;BME280;56457;52.190;4.440;2022-10-30T00:19:27;101726.34;;;15.43;100.00
69318;BME280;56457;52.190;4.440;2022-10-30T00:20:27;101721.94;;;15.44;100.00
69318;BME280;56457;52.190;4.440;2022-10-30T00:21:27;101726.28;;;15.46;100.00
69318;BME280;56457;52.190;4.440;2022-10-30T00:22:28;101727.19;;;15.45;100.00
69318;BME280;56457;52.190;4.440;2022-10-30T00:23:28;101722.84;;;15.43;100.00
69318;BME280;56457;52.190;4.440;2022-10-30T00:24:28;101729.91;;;15.39;100.00
69318;BME280;56457;52.190;4.440;2022-10-30T00:25:29;101725.53;;;15.38;100.00
69318;BME280;56457;52.190;4.440;2022-10-30T00:26:29;101721.94;;;15.44;100.00
69318;BME280;56457;52.190;4.440;2022-10-30T00:27:31;101729.94;;;15.38;100.00
69318;BME280;56457;52.190;4.440;2022-10-30T00:28:31;101730.88;;;15.35;100.00
69318;BME280;56457;52.190;4.440;2022-10-30T00:29:31;101730.00;;;15.34;100.00
69318;BME280;56457;52.190;4.440;2022-10-30T00:30:32;101729.16;;;15.31;100.00
69318;BME280;56457;52.190;4.440;2022-10-30T00:31:33;101724.78;;;15.30;100.00
69318;BME280;56457;52.190;4.440;2022-10-30T00:32:33;101726.56;;;15.26;100.00
69318;BME280;56457;52.190;4.440;2022-10-30T00:33:33;101733.66;;;15.24;100.00
69318;BME280;56457;52.190;4.440;2022-10-30T00:34:34;101723.97;;;15.23;100.00
69318;BME280;56457;52.190;4.440;2022-10-30T00:35:34;101729.25;;;15.25;100.00
69318;BME280;56457;52.190;4.440;2022-10-30T00:36:34;101736.31;;;15.23;100.00
69318;BME280;56457;52.190;4.440;2022-10-30T00:37:34;101734.50;;;15.26;100.00
69318;BME280;56457;52.190;4.440;2022-10-30T00:38:35;101732.78;;;15.24;100.00
69318;BME280;56457;52.190;4.440;2022-10-30T00:39:35;101732.75;;;15.25;100.00
69318;BME280;56457;52.190;4.440;2022-10-30T00:40:35;101727.44;;;15.27;100.00
69318;BME280;56457;52.190;4.440;2022-10-30T00:41:35;101732.72;;;15.27;100.00
69318;BME280;56457;52.190;4.440;2022-10-30T00:42:38;101734.44;;;15.31;100.00
69318;BME280;56457;52.190;4.440;2022-10-30T00:43:38;101730.94;;;15.30;100.00
69318;BME280;56457;52.190;4.440;2022-10-30T00:44:48;101731.75;;;15.35;100.00
69318;BME280;56457;52.190;4.440;2022-10-30T00:45:49;101728.22;;;15.35;100.00
69318;BME280;56457;52.190;4.440;2022-10-30T00:46:49;101723.78;;;15.37;100.00
69318;BME280;56457;52.190;4.440;2022-10-30T00:47:54;101723.75;;;15.39;100.00
69318;BME280;56457;52.190;4.440;2022-10-30T00:49:00;101724.63;;;15.39;100.00
69318;BME280;56457;52.190;4.440;2022-10-30T00:50:03;101725.44;;;15.44;100.00
69318;BME280;56457;52.190;4.440;2022-10-30T00:51:05;101720.16;;;15.44;100.00
69318;BME280;56457;52.190;4.440;2022-10-30T00:52:07;101720.16;;;15.44;100.00
69318;BME280;56457;52.190;4.440;2022-10-30T00:53:09;101721.91;;;15.47;100.00
69318;BME280;56457;52.190;4.440;2022-10-30T00:54:12;101713.03;;;15.49;100.00
69318;BME280;56457;52.190;4.440;2022-10-30T00:55:36;101716.53;;;15.51;100.00
69318;BME280;56457;52.190;4.440;2022-10-30T00:56:34;101721.91;;;15.45;100.00
69318;BME280;56457;52.190;4.440;2022-10-30T00:57:35;101719.34;;;15.39;100.00
69318;BME280;56457;52.190;4.440;2022-10-30T00:58:38;101723.75;;;15.39;100.00
69318;BME280;56457;52.190;4.440;2022-10-30T00:59:41;101721.09;;;15.42;100.00
69318;BME280;56457;52.190;4.440;2022-10-30T01:00:42;101713.16;;;15.40;100.00
69318;BME280;56457;52.190;4.440;2022-10-30T01:01:45;101720.22;;;15.41;100.00
69318;BME280;56457;52.190;4.440;2022-10-30T01:02:46;101725.44;;;15.44;100.00
69318;BME280;56457;52.190;4.440;2022-10-30T01:03:47;101728.94;;;15.46;100.00
69318;BME280;56457;52.190;4.440;2022-10-30T01:04:49;101725.44;;;15.44;100.00
69318;BME280;56457;52.190;4.440;2022-10-30T01:05:51;101728.19;;;15.38;100.00
69318;BME280;56457;52.190;4.440;2022-10-30T01:06:53;101726.47;;;15.34;100.00
69318;BME280;56457;52.190;4.440;2022-10-30T01:07:53;101724.72;;;15.34;100.00
69318;BME280;56457;52.190;4.440;2022-10-30T01:08:53;101725.63;;;15.30;100.00
69318;BME280;56457;52.190;4.440;2022-10-30T01:09:54;101721.25;;;15.29;100.00
69318;BME280;56457;52.190;4.440;2022-10-30T01:10:54;101729.22;;;15.26;100.00
69318;BME280;56457;52.190;4.440;2022-10-30T01:11:56;101742.50;;;15.20;100.00
69318;BME280;56457;52.190;4.440;2022-10-30T01:12:57;101738.16;;;15.15;100.00
69318;BME280;56457;52.190;4.440;2022-10-30T01:14:00;101741.69;;;15.17;100.00
69318;BME280;56457;52.190;4.440;2022-10-30T01:15:02;101743.47;;;15.16;100.00
69318;BME280;56457;52.190;4.440;2022-10-30T01:18:26;101748.75;;;15.13;100.00
69318;BME280;56457;52.190;4.440;2022-10-30T01:20:46;101747.94;;;15.10;100.00
69318;BME280;56457;52.190;4.440;2022-10-30T01:24:38;101755.91;;;15.06;100.00
69318;BME280;56457;52.190;4.440;2022-10-30T01:25:55;101749.75;;;15.06;100.00
69318;BME280;56457;52.190;4.440;2022-10-30T01:27:12;101754.19;;;15.04;100.00
69318;BME280;56457;52.190;4.440;2022-10-30T01:31:50;101752.34;;;15.07;100.00
69318;BME280;56457;52.190;4.440;2022-10-30T01:35:17;101753.22;;;15.08;100.00
69318;BME280;56457;52.190;4.440;2022-10-30T01:37:40;101746.97;;;15.15;100.00
69318;BME280;56457;52.190;4.440;2022-10-30T01:38:43;101757.66;;;15.06;100.00
69318;BME280;56457;52.190;4.440;2022-10-30T01:39:46;101762.94;;;15.07;100.00
69318;BME280;56457;52.190;4.440;2022-10-30T01:40:46;101761.16;;;15.10;100.00
69318;BME280;56457;52.190;4.440;2022-10-30T01:41:46;101756.78;;;15.05;100.00
69318;BME280;56457;52.190;4.440;2022-10-30T01:42:48;101760.34;;;15.01;100.00
69318;BME280;56457;52.190;4.440;2022-10-30T01:43:49;101761.28;;;14.96;100.00
69318;BME280;56457;52.190;4.440;2022-10-30T01:44:53;101757.81;;;14.92;100.00
69318;BME280;56457;52.190;4.440;2022-10-30T01:46:07;101767.53;;;14.89;100.00
69318;BME280;56457;52.190;4.440;2022-10-30T01:49:48;101771.66;;;15.14;100.00
69318;BME280;56457;52.190;4.440;2022-10-30T01:50:56;101768.13;;;15.17;100.00
69318;BME280;56457;52.190;4.440;2022-10-30T01:57:58;101765.50;;;15.14;100.00
69318;BME280;56457;52.190;4.440;2022-10-30T01:59:14;101763.75;;;15.13;100.00
69318;BME280;56457;52.190;4.440;2022-10-30T02:00:16;101764.66;;;15.08;100.00
69318;BME280;56457;52.190;4.440;2022-10-30T02:01:17;101756.75;;;15.07;100.00
69318;BME280;56457;52.190;4.440;2022-10-30T02:02:18;101765.59;;;15.03;100.00
69318;BME280;56457;52.190;4.440;2022-10-30T02:03:18;101766.56;;;14.99;100.00
69318;BME280;56457;52.190;4.440;2022-10-30T02:04:18;101760.38;;;15.00;100.00
69318;BME280;56457;52.190;4.440;2022-10-30T02:05:29;101759.53;;;14.96;100.00
69318;BME280;56457;52.190;4.440;2022-10-30T02:06:33;101755.16;;;14.94;100.00
69318;BME280;56457;52.190;4.440;2022-10-30T02:07:34;101753.41;;;14.93;100.00
69318;BME280;56457;52.190;4.440;2022-10-30T02:08:35;101756.97;;;14.89;100.00
69318;BME280;56457;52.190;4.440;2022-10-30T02:09:35;101752.56;;;14.89;100.00
69318;BME280;56457;52.190;4.440;2022-10-30T02:10:36;101756.09;;;14.91;100.00
69318;BME280;56457;52.190;4.440;2022-10-30T02:11:37;101756.09;;;14.88;100.00
69318;BME280;56457;52.190;4.440;2022-10-30T02:12:37;101751.69;;;14.89;100.00
69318;BME280;56457;52.190;4.440;2022-10-30T02:13:38;101742.03;;;14.88;100.00
69318;BME280;56457;52.190;4.440;2022-10-30T02:14:39;101750.84;;;14.87;100.00
69318;BME280;56457;52.190;4.440;2022-10-30T02:15:41;101755.22;;;14.88;100.00
69318;BME280;56457;52.190;4.440;2022-10-30T02:16:44;101742.00;;;14.91;100.00
69318;BME280;56457;52.190;4.440;2022-10-30T02:17:45;101751.66;;;14.90;100.00
69318;BME280;56457;52.190;4.440;2022-10-30T02:18:45;101749.06;;;14.87;100.00
69318;BME280;56457;52.190;4.440;2022-10-30T02:19:45;101748.16;;;14.90;100.00
69318;BME280;56457;52.190;4.440;2022-10-30T02:20:45;101760.50;;;14.89;100.00
69318;BME280;56457;52.190;4.440;2022-10-30T02:21:46;101757.81;;;14.92;100.00
69318;BME280;56457;52.190;4.440;2022-10-30T02:22:46;101759.53;;;14.98;100.00
69318;BME280;56457;52.190;4.440;2022-10-30T02:23:46;101764.75;;;15.01;100.00
69318;BME280;56457;52.190;4.440;2022-10-30T02:24:47;101764.72;;;15.05;100.00
69318;BME280;56457;52.190;4.440;2022-10-30T02:25:47;101764.69;;;15.10;100.00
69318;BME280;56457;52.190;4.440;2022-10-30T02:26:47;101768.19;;;15.11;100.00
69318;BME280;56457;52.190;4.440;2022-10-30T02:27:47;101764.66;;;15.12;100.00
69318;BME280;56457;52.190;4.440;2022-10-30T02:28:48;101759.34;;;15.13;100.00
69318;BME280;56457;52.190;4.440;2022-10-30T02:29:48;101764.59;;;15.15;100.00
69318;BME280;56457;52.190;4.440;2022-10-30T02:30:48;101768.13;;;15.15;100.00
69318;BME280;56457;52.190;4.440;2022-10-30T02:31:48;101764.59;;;15.15;100.00
69318;BME280;56457;52.190;4.440;2022-10-30T02:32:49;101760.22;;;15.12;100.00
69318;BME280;56457;52.190;4.440;2022-10-30T02:33:49;101762.91;;;15.09;100.00
69318;BME280;56457;52.190;4.440;2022-10-30T02:34:49;101758.50;;;15.08;100.00
69318;BME280;56457;52.190;4.440;2022-10-30T02:35:50;101754.16;;;15.05;100.00
69318;BME280;56457;52.190;4.440;2022-10-30T02:36:50;101762.06;;;15.07;100.00
69318;BME280;56457;52.190;4.440;2022-10-30T02:37:50;101763.78;;;15.08;100.00
69318;BME280;56457;52.190;4.440;2022-10-30T02:38:51;101774.38;;;15.08;100.00
69318;BME280;56457;52.190;4.440;2022-10-30T02:39:51;101765.56;;;15.07;100.00
69318;BME280;56457;52.190;4.440;2022-10-30T02:40:51;101770.00;;;15.05;100.00
69318;BME280;56457;52.190;4.440;2022-10-30T02:41:51;101765.59;;;15.06;100.00
69318;BME280;56457;52.190;4.440;2022-10-30T02:42:52;101765.56;;;15.07;100.00
69318;BME280;56457;52.190;4.440;2022-10-30T02:43:52;101764.69;;;15.07;100.00
69318;BME280;56457;52.190;4.440;2022-10-30T02:44:52;101764.75;;;15.02;100.00
69318;BME280;56457;52.190;4.440;2022-10-30T02:45:53;101761.25;;;15.00;100.00
69318;BME280;56457;52.190;4.440;2022-10-30T02:46:54;101762.25;;;14.92;100.00
69318;BME280;56457;52.190;4.440;2022-10-30T02:47:54;101772.00;;;14.85;100.00
69318;BME280;56457;52.190;4.440;2022-10-30T02:48:55;101776.47;;;14.78;100.00
69318;BME280;56457;52.190;4.440;2022-10-30T02:49:55;101776.53;;;14.72;100.00
69318;BME280;56457;52.190;4.440;2022-10-30T02:51:02;101776.63;;;14.63;100.00
69318;BME280;56457;52.190;4.440;2022-10-30T02:52:02;101774.06;;;14.56;100.00
69318;BME280;56457;52.190;4.440;2022-10-30T02:53:02;101773.19;;;14.55;100.00
69318;BME280;56457;52.190;4.440;2022-10-30T02:54:03;101776.66;;;14.57;100.00
69318;BME280;56457;52.190;4.440;2022-10-30T02:55:03;101775.78;;;14.58;100.00
69318;BME280;56457;52.190;4.440;2022-10-30T02:56:04;101772.25;;;14.58;100.00
69318;BME280;56457;52.190;4.440;2022-10-30T02:57:05;101774.88;;;14.59;100.00
69318;BME280;56457;52.190;4.440;2022-10-30T02:58:05;101768.72;;;14.59;100.00
69318;BME280;56457;52.190;4.440;2022-10-30T02:59:05;101776.63;;;14.62;100.00
69318;BME280;56457;52.190;4.440;2022-10-30T03:00:06;101773.16;;;14.60;100.00
69318;BME280;56457;52.190;4.440;2022-10-30T03:01:10;101776.66;;;14.59;100.00
69318;BME280;56457;52.190;4.440;2022-10-30T03:02:10;101774.06;;;14.56;100.00
69318;BME280;56457;52.190;4.440;2022-10-30T03:03:11;101774.97;;;14.51;100.00
69318;BME280;56457;52.190;4.440;2022-10-30T03:04:11;101774.13;;;14.48;100.00
69318;BME280;56457;52.190;4.440;2022-10-30T03:05:11;101777.66;;;14.48;100.00
69318;BME280;56457;52.190;4.440;2022-10-30T03:06:12;101776.72;;;14.51;100.00
69318;BME280;56457;52.190;4.440;2022-10-30T03:07:14;101775.81;;;14.55;100.00
69318;BME280;56457;52.190;4.440;2022-10-30T03:08:14;101771.44;;;14.52;100.00
69318;BME280;56457;52.190;4.440;2022-10-30T03:09:14;101769.69;;;14.51;100.00
69318;BME280;56457;52.190;4.440;2022-10-30T03:10:15;101769.72;;;14.48;100.00
69318;BME280;56457;52.190;4.440;2022-10-30T03:11:15;101767.06;;;14.45;100.00
69318;BME280;56457;52.190;4.440;2022-10-30T03:12:16;101771.50;;;14.48;100.00
69318;BME280;56457;52.190;4.440;2022-10-30T03:13:17;101773.25;;;14.49;100.00
69318;BME280;56457;52.190;4.440;2022-10-30T03:14:17;101767.06;;;14.47;100.00
69318;BME280;56457;52.190;4.440;2022-10-30T03:15:17;101758.28;;;14.49;100.00
69318;BME280;56457;52.190;4.440;2022-10-30T03:16:18;101760.88;;;14.54;100.00
69318;BME280;56457;52.190;4.440;2022-10-30T03:17:19;101768.78;;;14.52;100.00
69318;BME280;56457;52.190;4.440;2022-10-30T03:18:19;101769.66;;;14.54;100.00
69318;BME280;56457;52.190;4.440;2022-10-30T03:19:20;101768.75;;;14.57;100.00
69318;BME280;56457;52.190;4.440;2022-10-30T03:20:20;101762.56;;;14.58;100.00
69318;BME280;56457;52.190;4.440;2022-10-30T03:21:22;101765.19;;;14.63;100.00
69318;BME280;56457;52.190;4.440;2022-10-30T03:22:22;101764.31;;;14.62;100.00
69318;BME280;56457;52.190;4.440;2022-10-30T03:23:22;101766.91;;;14.67;100.00
69318;BME280;56457;52.190;4.440;2022-10-30T03:24:23;101763.28;;;14.75;100.00
69318;BME280;56457;52.190;4.440;2022-10-30T03:25:23;101755.47;;;14.66;100.00
69318;BME280;56457;52.190;4.440;2022-10-30T03:26:23;101761.69;;;14.58;100.00
69318;BME280;56457;52.190;4.440;2022-10-30T03:27:24;101761.69;;;14.59;100.00
69318;BME280;56457;52.190;4.440;2022-10-30T03:28:25;101764.25;;;14.65;100.00
69318;BME280;56457;52.190;4.440;2022-10-30T03:29:25;101765.94;;;14.74;100.00
69318;BME280;56457;52.190;4.440;2022-10-30T03:30:25;101764.09;;;14.82;100.00
69318;BME280;56457;52.190;4.440;2022-10-30T03:31:26;101752.69;;;14.80;100.00
69318;BME280;56457;52.190;4.440;2022-10-30T03:32:26;101753.56;;;14.79;100.00
69318;BME280;56457;52.190;4.440;2022-10-30T03:33:26;101756.22;;;14.76;100.00
69318;BME280;56457;52.190;4.440;2022-10-30T03:34:27;101753.56;;;14.77;100.00
69318;BME280;56457;52.190;4.440;2022-10-30T03:35:27;101755.34;;;14.78;100.00
69318;BME280;56457;52.190;4.440;2022-10-30T03:36:28;101758.03;;;14.71;100.00
69318;BME280;56457;52.190;4.440;2022-10-30T03:37:28;101757.22;;;14.67;100.00
69318;BME280;56457;52.190;4.440;2022-10-30T03:38:28;101758.97;;;14.68;100.00
69318;BME280;56457;52.190;4.440;2022-10-30T03:39:28;101755.41;;;14.72;100.00
69318;BME280;56457;52.190;4.440;2022-10-30T03:40:28;101758.09;;;14.68;100.00
69318;BME280;56457;52.190;4.440;2022-10-30T03:41:29;101759.81;;;14.70;100.00
69318;BME280;56457;52.190;4.440;2022-10-30T03:42:29;101757.16;;;14.72;100.00
69318;BME280;56457;52.190;4.440;2022-10-30T03:43:30;101761.56;;;14.73;100.00
69318;BME280;56457;52.190;4.440;2022-10-30T03:44:30;101762.44;;;14.70;100.00
69318;BME280;56457;52.190;4.440;2022-10-30T03:45:31;101765.16;;;14.66;100.00
69318;BME280;56457;52.190;4.440;2022-10-30T03:46:32;101768.66;;;14.68;100.00
69318;BME280;56457;52.190;4.440;2022-10-30T03:47:32;101771.31;;;14.66;100.00
69318;BME280;56457;52.190;4.440;2022-10-30T03:48:32;101772.16;;;14.70;100.00
69318;BME280;56457;52.190;4.440;2022-10-30T03:49:33;101779.13;;;14.75;100.00
69318;BME280;56457;52.190;4.440;2022-10-30T03:50:33;101766.81;;;14.76;100.00
69318;BME280;56457;52.190;4.440;2022-10-30T03:51:33;101764.19;;;14.74;100.00
69318;BME280;56457;52.190;4.440;2022-10-30T03:52:33;101770.38;;;14.70;100.00
69318;BME280;56457;52.190;4.440;2022-10-30T03:53:34;101766.91;;;14.65;100.00
69318;BME280;56457;52.190;4.440;2022-10-30T03:54:34;101766.94;;;14.62;100.00
69318;BME280;56457;52.190;4.440;2022-10-30T03:55:34;101768.75;;;14.57;100.00
69318;BME280;56457;52.190;4.440;2022-10-30T03:56:34;101763.44;;;14.59;100.00
69318;BME280;56457;52.190;4.440;2022-10-30T03:57:36;101767.84;;;14.58;100.00
69318;BME280;56457;52.190;4.440;2022-10-30T03:58:36;101773.16;;;14.60;100.00
69318;BME280;56457;52.190;4.440;2022-10-30T03:59:36;101768.72;;;14.62;100.00
69318;BME280;56457;52.190;4.440;2022-10-30T04:00:37;101774.00;;;14.59;100.00
69318;BME280;56457;52.190;4.440;2022-10-30T04:01:37;101766.97;;;14.58;100.00
69318;BME280;56457;52.190;4.440;2022-10-30T04:02:37;101766.09;;;14.60;100.00
69318;BME280;56457;52.190;4.440;2022-10-30T04:03:38;101771.38;;;14.57;100.00
69318;BME280;56457;52.190;4.440;2022-10-30T04:04:38;101771.38;;;14.57;100.00
69318;BME280;56457;52.190;4.440;2022-10-30T04:05:38;101768.78;;;14.56;100.00
69318;BME280;56457;52.190;4.440;2022-10-30T04:06:39;101767.84;;;14.58;100.00
69318;BME280;56457;52.190;4.440;2022-10-30T04:07:39;101772.28;;;14.56;100.00
69318;BME280;56457;52.190;4.440;2022-10-30T04:08:39;101773.97;;;14.63;100.00
69318;BME280;56457;52.190;4.440;2022-10-30T04:09:39;101780.97;;;14.67;100.00
69318;BME280;56457;52.190;4.440;2022-10-30T04:10:43;101773.88;;;14.74;100.00
69318;BME280;56457;52.190;4.440;2022-10-30T04:11:43;101775.63;;;14.72;100.00
69318;BME280;56457;52.190;4.440;2022-10-30T04:12:44;101770.44;;;14.64;100.00
69318;BME280;56457;52.190;4.440;2022-10-30T04:13:44;101774.94;;;14.54;100.00
69318;BME280;56457;52.190;4.440;2022-10-30T04:14:44;101777.66;;;14.48;100.00
69318;BME280;56457;52.190;4.440;2022-10-30T04:15:46;101776.78;;;14.43;100.00
69318;BME280;56457;52.190;4.440;2022-10-30T04:16:46;101768.91;;;14.37;100.00
69318;BME280;56457;52.190;4.440;2022-10-30T04:17:47;101772.47;;;14.35;100.00
69318;BME280;56457;52.190;4.440;2022-10-30T04:18:47;101761.94;;;14.27;100.00
69318;BME280;56457;52.190;4.440;2022-10-30T04:19:47;101762.84;;;14.26;100.00
69318;BME280;56457;52.190;4.440;2022-10-30T04:20:48;101764.59;;;14.27;100.00
69318;BME280;56457;52.190;4.440;2022-10-30T04:21:48;101763.72;;;14.26;100.00
69318;BME280;56457;52.190;4.440;2022-10-30T04:23:00;101765.44;;;14.27;100.00
69318;BME280;56457;52.190;4.440;2022-10-30T04:24:01;101759.31;;;14.28;100.00
69318;BME280;56457;52.190;4.440;2022-10-30T04:25:01;101766.34;;;14.26;100.00
69318;BME280;56457;52.190;4.440;2022-10-30T04:26:02;101762.81;;;14.27;100.00
69318;BME280;56457;52.190;4.440;2022-10-30T04:27:02;101757.53;;;14.29;100.00
69318;BME280;56457;52.190;4.440;2022-10-30T04:28:02;101762.78;;;14.32;100.00
69318;BME280;56457;52.190;4.440;2022-10-30T04:29:03;101760.13;;;14.35;100.00
69318;BME280;56457;52.190;4.440;2022-10-30T04:30:03;101756.69;;;14.28;100.00
69318;BME280;56457;52.190;4.440;2022-10-30T04:31:04;101758.41;;;14.28;100.00
69318;BME280;56457;52.190;4.440;2022-10-30T04:32:04;101754.03;;;14.28;100.00
69318;BME280;56457;52.190;4.440;2022-10-30T04:33:06;101758.47;;;14.23;100.00
69318;BME280;56457;52.190;4.440;2022-10-30T04:34:06;101753.16;;;14.25;100.00
69318;BME280;56457;52.190;4.440;2022-10-30T04:35:06;101755.81;;;14.25;100.00
69318;BME280;56457;52.190;4.440;2022-10-30T04:36:07;101753.16;;;14.25;100.00
69318;BME280;56457;52.190;4.440;2022-10-30T04:37:07;101747.91;;;14.22;100.00
69318;BME280;56457;52.190;4.440;2022-10-30T04:38:09;101753.22;;;14.16;100.00
69318;BME280;56457;52.190;4.440;2022-10-30T04:39:10;101753.25;;;14.17;100.00
69318;BME280;56457;52.190;4.440;2022-10-30T04:40:10;101747.94;;;14.16;100.00
69318;BME280;56457;52.190;4.440;2022-10-30T04:41:10;101746.22;;;14.15;100.00
69318;BME280;56457;52.190;4.440;2022-10-30T04:42:11;101743.59;;;14.12;100.00
69318;BME280;56457;52.190;4.440;2022-10-30T04:43:11;101743.63;;;14.10;100.00
69318;BME280;56457;52.190;4.440;2022-10-30T04:44:12;101741.88;;;14.11;100.00
69318;BME280;56457;52.190;4.440;2022-10-30T04:45:12;101741.88;;;14.11;100.00
69318;BME280;56457;52.190;4.440;2022-10-30T04:46:13;101731.31;;;14.11;100.00
69318;BME280;56457;52.190;4.440;2022-10-30T04:47:13;101744.47;;;14.12;100.00
69318;BME280;56457;52.190;4.440;2022-10-30T04:48:16;101740.94;;;14.15;100.00
69318;BME280;56457;52.190;4.440;2022-10-30T04:49:16;101737.47;;;14.11;100.00
69318;BME280;56457;52.190;4.440;2022-10-30T04:50:17;101738.34;;;14.12;100.00
69318;BME280;56457;52.190;4.440;2022-10-30T04:51:17;101737.41;;;14.16;100.00
69318;BME280;56457;52.190;4.440;2022-10-30T04:52:17;101744.41;;;14.23;100.00
69318;BME280;56457;52.190;4.440;2022-10-30T04:53:18;101747.03;;;14.24;100.00
69318;BME280;56457;52.190;4.440;2022-10-30T04:54:18;101744.31;;;14.32;100.00
69318;BME280;56457;52.190;4.440;2022-10-30T04:55:20;101753.09;;;14.36;100.00
69318;BME280;56457;52.190;4.440;2022-10-30T04:56:20;101751.28;;;14.39;100.00
69318;BME280;56457;52.190;4.440;2022-10-30T04:57:20;101750.41;;;14.42;100.00
69318;BME280;56457;52.190;4.440;2022-10-30T04:58:20;101754.84;;;14.35;100.00
69318;BME280;56457;52.190;4.440;2022-10-30T04:59:21;101750.47;;;14.33;100.00
69318;BME280;56457;52.190;4.440;2022-10-30T05:00:21;101747.03;;;14.24;100.00
69318;BME280;56457;52.190;4.440;2022-10-30T05:01:21;101746.19;;;14.18;100.00
69318;BME280;56457;52.190;4.440;2022-10-30T05:02:21;101751.47;;;14.15;100.00
69318;BME280;56457;52.190;4.440;2022-10-30T05:03:22;101753.28;;;14.13;100.00
69318;BME280;56457;52.190;4.440;2022-10-30T05:04:23;101757.66;;;14.14;100.00
69318;BME280;56457;52.190;4.440;2022-10-30T05:05:23;101755.03;;;14.09;100.00
69318;BME280;56457;52.190;4.440;2022-10-30T05:06:24;101749.78;;;14.11;100.00
69318;BME280;56457;52.190;4.440;2022-10-30T05:07:25;101750.63;;;14.13;100.00
69318;BME280;56457;52.190;4.440;2022-10-30T05:08:25;101757.63;;;14.15;100.00
69318;BME280;56457;52.190;4.440;2022-10-30T05:09:25;101756.75;;;14.15;100.00
69318;BME280;56457;52.190;4.440;2022-10-30T05:10:25;101756.81;;;14.12;100.00
69318;BME280;56457;52.190;4.440;2022-10-30T05:11:26;101755.00;;;14.14;100.00
69318;BME280;56457;52.190;4.440;2022-10-30T05:12:26;101753.25;;;14.14;100.00
69318;BME280;56457;52.190;4.440;2022-10-30T05:13:26;101741.88;;;14.11;100.00
69318;BME280;56457;52.190;4.440;2022-10-30T05:14:27;101752.41;;;14.11;100.00
69318;BME280;56457;52.190;4.440;2022-10-30T05:15:28;101754.16;;;14.13;100.00
69318;BME280;56457;52.190;4.440;2022-10-30T05:16:28;101758.50;;;14.16;100.00
69318;BME280;56457;52.190;4.440;2022-10-30T05:17:28;101755.91;;;14.13;100.00
69318;BME280;56457;52.190;4.440;2022-10-30T05:18:28;101755.88;;;14.14;100.00
69318;BME280;56457;52.190;4.440;2022-10-30T05:19:29;101758.47;;;14.22;100.00
69318;BME280;56457;52.190;4.440;2022-10-30T05:20:29;101757.59;;;14.21;100.00
69318;BME280;56457;52.190;4.440;2022-10-30T05:21:29;101758.44;;;14.25;100.00
69318;BME280;56457;52.190;4.440;2022-10-30T05:22:29;101755.84;;;14.23;100.00
69318;BME280;56457;52.190;4.440;2022-10-30T05:23:30;101750.56;;;14.20;100.00
69318;BME280;56457;52.190;4.440;2022-10-30T05:24:30;101750.63;;;14.13;100.00
69318;BME280;56457;52.190;4.440;2022-10-30T05:25:30;101747.13;;;14.12;100.00
69318;BME280;56457;52.190;4.440;2022-10-30T05:26:30;101754.19;;;14.07;100.00
69318;BME280;56457;52.190;4.440;2022-10-30T05:27:31;101750.69;;;14.05;100.00
69318;BME280;56457;52.190;4.440;2022-10-30T05:28:31;101751.59;;;14.04;100.00
69318;BME280;56457;52.190;4.440;2022-10-30T05:29:31;101754.22;;;14.02;100.00
69318;BME280;56457;52.190;4.440;2022-10-30T05:30:32;101754.19;;;14.10;100.00
69318;BME280;56457;52.190;4.440;2022-10-30T05:31:33;101741.88;;;14.11;100.00
69318;BME280;56457;52.190;4.440;2022-10-30T05:32:33;101749.78;;;14.11;100.00
69318;BME280;56457;52.190;4.440;2022-10-30T05:33:34;101751.53;;;14.09;100.00
69318;BME280;56457;52.190;4.440;2022-10-30T05:34:34;101750.63;;;14.13;100.00
69318;BME280;56457;52.190;4.440;2022-10-30T05:35:34;101748.88;;;14.12;100.00
69318;BME280;56457;52.190;4.440;2022-10-30T05:36:35;101751.53;;;14.10;100.00
69318;BME280;56457;52.190;4.440;2022-10-30T05:37:35;101748.91;;;14.10;100.00